sensor_id;sensor_type;location;lat;lon;timestamp;pressure;altitude;pressure_sealevel;temperature;humidity
51287;BME280;37364;46.974;18.916;2023-02-21T00:00:59;151720.00;;;5.44;100.00
51287;BME280;37364;46.974;18.916;2023-02-21T00:03:42;151718.72;;;5.44;100.00
51287;BME280;37364;46.974;18.916;2023-02-21T00:06:25;151767.75;;;5.63;100.00
51287;BME280;37364;46.974;18.916;2023-02-21T00:09:07;151770.28;;;5.64;100.00
51287;BME280;37364;46.974;18.916;2023-02-21T00:11:50;151744.50;;;5.54;100.00
51287;BME280;37364;46.974;18.916;2023-02-21T00:14:33;151731.63;;;5.49;100.00
51287;BME280;37364;46.974;18.916;2023-02-21T00:17:18;151745.78;;;5.54;100.00
51287;BME280;37364;46.974;18.916;2023-02-21T00:20:01;151734.19;;;5.50;100.00
51287;BME280;37364;46.974;18.916;2023-02-21T00:22:44;151767.75;;;5.63;100.00
51287;BME280;37364;46.974;18.916;2023-02-21T00:25:28;151774.19;;;5.66;100.00
51287;BME280;37364;46.974;18.916;2023-02-21T00:28:10;151779.34;;;5.68;100.00
51287;BME280;37364;46.974;18.916;2023-02-21T00:30:53;151770.28;;;5.64;100.00
51287;BME280;37364;46.974;18.916;2023-02-21T00:33:38;151766.47;;;5.63;100.00
51287;BME280;37364;46.974;18.916;2023-02-21T00:36:21;151753.53;;;5.58;100.00
51287;BME280;37364;46.974;18.916;2023-02-21T00:39:04;151730.31;;;5.48;100.00
51287;BME280;37364;46.974;18.916;2023-02-21T00:41:46;151732.91;;;5.49;100.00
51287;BME280;37364;46.974;18.916;2023-02-21T00:44:29;151744.50;;;5.54;100.00
51287;BME280;37364;46.974;18.916;2023-02-21T00:47:11;151769.00;;;5.64;100.00
51287;BME280;37364;46.974;18.916;2023-02-21T00:49:57;151743.22;;;5.53;100.00
51287;BME280;37364;46.974;18.916;2023-02-21T00:52:40;151716.13;;;5.43;100.00
51287;BME280;37364;46.974;18.916;2023-02-21T00:55:22;151714.84;;;5.42;100.00
51287;BME280;37364;46.974;18.916;2023-02-21T00:58:05;151685.16;;;5.30;100.00
51287;BME280;37364;46.974;18.916;2023-02-21T01:00:48;151699.38;;;5.36;100.00
51287;BME280;37364;46.974;18.916;2023-02-21T01:03:31;151677.47;;;5.27;100.00
51287;BME280;37364;46.974;18.916;2023-02-21T01:06:16;151647.81;;;5.15;100.00
51287;BME280;37364;46.974;18.916;2023-02-21T01:08:59;151680.03;;;5.28;100.00
51287;BME280;37364;46.974;18.916;2023-02-21T01:11:41;151664.53;;;5.22;100.00
51287;BME280;37364;46.974;18.916;2023-02-21T01:14:25;151656.78;;;5.19;100.00
51287;BME280;37364;46.974;18.916;2023-02-21T01:17:08;151663.28;;;5.22;100.00
51287;BME280;37364;46.974;18.916;2023-02-21T01:19:50;151634.88;;;5.10;100.00
51287;BME280;37364;46.974;18.916;2023-02-21T01:22:36;151623.31;;;5.06;100.00
51287;BME280;37364;46.974;18.916;2023-02-21T01:25:19;151641.31;;;5.13;100.00
51287;BME280;37364;46.974;18.916;2023-02-21T01:28:02;151660.66;;;5.21;100.00
51287;BME280;37364;46.974;18.916;2023-02-21T01:30:47;151646.47;;;5.15;100.00
51287;BME280;37364;46.974;18.916;2023-02-21T01:33:36;151652.97;;;5.18;100.00
51287;BME280;37364;46.974;18.916;2023-02-21T01:36:19;151665.81;;;5.23;100.00
51287;BME280;37364;46.974;18.916;2023-02-21T01:39:04;151659.41;;;5.20;100.00
51287;BME280;37364;46.974;18.916;2023-02-21T01:41:47;151663.28;;;5.22;100.00
51287;BME280;37364;46.974;18.916;2023-02-21T01:44:35;151642.59;;;5.13;100.00
51287;BME280;37364;46.974;18.916;2023-02-21T01:47:19;151665.81;;;5.23;100.00
51287;BME280;37364;46.974;18.916;2023-02-21T01:50:03;151664.53;;;5.22;100.00
51287;BME280;37364;46.974;18.916;2023-02-21T01:52:48;151650.34;;;5.17;100.00
51287;BME280;37364;46.974;18.916;2023-02-21T01:55:35;151661.94;;;5.21;100.00
51287;BME280;37364;46.974;18.916;2023-02-21T01:58:22;151616.81;;;5.03;100.00
51287;BME280;37364;46.974;18.916;2023-02-21T02:01:07;151593.66;;;4.94;100.00
51287;BME280;37364;46.974;18.916;2023-02-21T02:03:52;151569.16;;;4.84;100.00
51287;BME280;37364;46.974;18.916;2023-02-21T02:06:36;151592.31;;;4.93;100.00
51287;BME280;37364;46.974;18.916;2023-02-21T02:09:20;151562.66;;;4.82;100.00
51287;BME280;37364;46.974;18.916;2023-02-21T02:12:27;151569.16;;;4.84;100.00
51287;BME280;37364;46.974;18.916;2023-02-21T02:18:05;151569.16;;;4.84;100.00
51287;BME280;37364;46.974;18.916;2023-02-21T02:24:10;151547.19;;;4.75;100.00
51287;BME280;37364;46.974;18.916;2023-02-21T02:30:21;151511.13;;;4.61;100.00
51287;BME280;37364;46.974;18.916;2023-02-21T02:36:09;151521.44;;;4.65;100.00
51287;BME280;37364;46.974;18.916;2023-02-21T02:38:50;151508.53;;;4.60;100.00
51287;BME280;37364;46.974;18.916;2023-02-21T02:41:29;151477.59;;;4.48;100.00
51287;BME280;37364;46.974;18.916;2023-02-21T02:44:08;151463.41;;;4.42;100.00
51287;BME280;37364;46.974;18.916;2023-02-21T02:46:44;151433.78;;;4.30;100.00
51287;BME280;37364;46.974;18.916;2023-02-21T02:49:20;151414.44;;;4.23;100.00
51287;BME280;37364;46.974;18.916;2023-02-21T02:51:54;151399.00;;;4.16;100.00
51287;BME280;37364;46.974;18.916;2023-02-21T02:54:32;151373.22;;;4.06;100.00
51287;BME280;37364;46.974;18.916;2023-02-21T02:57:04;151357.78;;;4.00;100.00
51287;BME280;37364;46.974;18.916;2023-02-21T02:59:39;151344.88;;;3.95;100.00
51287;BME280;37364;46.974;18.916;2023-02-21T03:05:30;151304.94;;;3.79;100.00
51287;BME280;37364;46.974;18.916;2023-02-21T03:08:12;151292.03;;;3.74;100.00
51287;BME280;37364;46.974;18.916;2023-02-21T03:10:48;151277.88;;;3.68;100.00
51287;BME280;37364;46.974;18.916;2023-02-21T03:13:28;151261.16;;;3.62;100.00
51287;BME280;37364;46.974;18.916;2023-02-21T03:16:07;151276.59;;;3.68;100.00
51287;BME280;37364;46.974;18.916;2023-02-21T03:18:42;151292.03;;;3.74;100.00
51287;BME280;37364;46.974;18.916;2023-02-21T03:21:18;151298.50;;;3.76;100.00
51287;BME280;37364;46.974;18.916;2023-02-21T03:23:56;151294.66;;;3.75;100.00
51287;BME280;37364;46.974;18.916;2023-02-21T03:26:30;151283.03;;;3.70;100.00
51287;BME280;37364;46.974;18.916;2023-02-21T03:29:20;151284.34;;;3.71;100.00
51287;BME280;37364;46.974;18.916;2023-02-21T03:31:55;151323.00;;;3.86;100.00
51287;BME280;37364;46.974;18.916;2023-02-21T03:34:27;151346.16;;;3.95;100.00
51287;BME280;37364;46.974;18.916;2023-02-21T03:36:58;151379.66;;;4.09;100.00
51287;BME280;37364;46.974;18.916;2023-02-21T03:39:33;151357.78;;;4.00;100.00
51287;BME280;37364;46.974;18.916;2023-02-21T03:42:04;151344.88;;;3.95;100.00
51287;BME280;37364;46.974;18.916;2023-02-21T03:44:36;151343.59;;;3.94;100.00
51287;BME280;37364;46.974;18.916;2023-02-21T03:47:07;151344.88;;;3.95;100.00
51287;BME280;37364;46.974;18.916;2023-02-21T03:49:37;151360.31;;;4.01;100.00
51287;BME280;37364;46.974;18.916;2023-02-21T03:52:10;151369.34;;;4.05;100.00
51287;BME280;37364;46.974;18.916;2023-02-21T03:54:45;151348.75;;;3.96;100.00
51287;BME280;37364;46.974;18.916;2023-02-21T03:57:19;151331.97;;;3.90;100.00
51287;BME280;37364;46.974;18.916;2023-02-21T03:59:50;151320.41;;;3.85;100.00
51287;BME280;37364;46.974;18.916;2023-02-21T04:02:21;151297.19;;;3.76;100.00
51287;BME280;37364;46.974;18.916;2023-02-21T04:04:53;151261.16;;;3.62;100.00
51287;BME280;37364;46.974;18.916;2023-02-21T04:07:25;151265.00;;;3.63;100.00
51287;BME280;37364;46.974;18.916;2023-02-21T04:09:59;151239.28;;;3.53;100.00
51287;BME280;37364;46.974;18.916;2023-02-21T04:12:39;151201.91;;;3.38;100.00
51287;BME280;37364;46.974;18.916;2023-02-21T04:15:10;151203.19;;;3.39;100.00
51287;BME280;37364;46.974;18.916;2023-02-21T04:17:43;151186.44;;;3.32;100.00
51287;BME280;37364;46.974;18.916;2023-02-21T04:20:14;151178.72;;;3.29;100.00
51287;BME280;37364;46.974;18.916;2023-02-21T04:22:50;151164.53;;;3.23;100.00
51287;BME280;37364;46.974;18.916;2023-02-21T04:25:32;151156.84;;;3.20;100.00
51287;BME280;37364;46.974;18.916;2023-02-21T04:28:10;151150.41;;;3.17;100.00
51287;BME280;37364;46.974;18.916;2023-02-21T04:30:41;151149.09;;;3.17;100.00
51287;BME280;37364;46.974;18.916;2023-02-21T04:33:16;151168.41;;;3.25;100.00
51287;BME280;37364;46.974;18.916;2023-02-21T04:35:47;151160.72;;;3.22;100.00
51287;BME280;37364;46.974;18.916;2023-02-21T04:38:24;151171.00;;;3.26;100.00
51287;BME280;37364;46.974;18.916;2023-02-21T04:40:57;151165.84;;;3.24;100.00
51287;BME280;37364;46.974;18.916;2023-02-21T04:43:28;151163.25;;;3.23;100.00
51287;BME280;37364;46.974;18.916;2023-02-21T04:45:59;151152.97;;;3.19;100.00
51287;BME280;37364;46.974;18.916;2023-02-21T04:48:30;151141.41;;;3.14;100.00
51287;BME280;37364;46.974;18.916;2023-02-21T04:51:01;151131.09;;;3.10;100.00
51287;BME280;37364;46.974;18.916;2023-02-21T04:53:41;151113.06;;;3.03;100.00
51287;BME280;37364;46.974;18.916;2023-02-21T04:56:16;151115.59;;;3.04;100.00
51287;BME280;37364;46.974;18.916;2023-02-21T04:58:48;151118.19;;;3.05;100.00
51287;BME280;37364;46.974;18.916;2023-02-21T05:01:19;151123.34;;;3.07;100.00
51287;BME280;37364;46.974;18.916;2023-02-21T05:03:51;151134.91;;;3.11;100.00
51287;BME280;37364;46.974;18.916;2023-02-21T05:06:22;151158.13;;;3.21;100.00
51287;BME280;37364;46.974;18.916;2023-02-21T05:08:54;151186.44;;;3.32;100.00
51287;BME280;37364;46.974;18.916;2023-02-21T05:11:33;151209.66;;;3.41;100.00
51287;BME280;37364;46.974;18.916;2023-02-21T05:14:04;151212.19;;;3.42;100.00
51287;BME280;37364;46.974;18.916;2023-02-21T05:16:37;151209.66;;;3.41;100.00
51287;BME280;37364;46.974;18.916;2023-02-21T05:19:08;151252.13;;;3.58;100.00
51287;BME280;37364;46.974;18.916;2023-02-21T05:21:38;151239.28;;;3.53;100.00
51287;BME280;37364;46.974;18.916;2023-02-21T05:24:09;151266.28;;;3.64;100.00
51287;BME280;37364;46.974;18.916;2023-02-21T05:26:42;151276.59;;;3.68;100.00
51287;BME280;37364;46.974;18.916;2023-02-21T05:29:12;151295.91;;;3.75;100.00
51287;BME280;37364;46.974;18.916;2023-02-21T05:31:42;151279.19;;;3.69;100.00
51287;BME280;37364;46.974;18.916;2023-02-21T05:34:13;151297.19;;;3.76;100.00
51287;BME280;37364;46.974;18.916;2023-02-21T05:36:46;151257.25;;;3.60;100.00
51287;BME280;37364;46.974;18.916;2023-02-21T05:39:16;151246.97;;;3.56;100.00
51287;BME280;37364;46.974;18.916;2023-02-21T05:41:50;151250.84;;;3.58;100.00
51287;BME280;37364;46.974;18.916;2023-02-21T05:44:21;151248.25;;;3.56;100.00
51287;BME280;37364;46.974;18.916;2023-02-21T05:46:51;151231.53;;;3.50;100.00
51287;BME280;37364;46.974;18.916;2023-02-21T05:49:22;151221.22;;;3.46;100.00
51287;BME280;37364;46.974;18.916;2023-02-21T05:51:54;151226.38;;;3.48;100.00
51287;BME280;37364;46.974;18.916;2023-02-21T05:54:24;151232.78;;;3.50;100.00
51287;BME280;37364;46.974;18.916;2023-02-21T05:56:58;151240.53;;;3.53;100.00
51287;BME280;37364;46.974;18.916;2023-02-21T05:59:29;151271.44;;;3.66;100.00
51287;BME280;37364;46.974;18.916;2023-02-21T06:01:59;151284.34;;;3.71;100.00
51287;BME280;37364;46.974;18.916;2023-02-21T06:04:30;151299.78;;;3.77;100.00
51287;BME280;37364;46.974;18.916;2023-02-21T06:07:01;151325.53;;;3.87;100.00
51287;BME280;37364;46.974;18.916;2023-02-21T06:09:32;151334.56;;;3.91;100.00
51287;BME280;37364;46.974;18.916;2023-02-21T06:12:06;151359.06;;;4.01;100.00
51287;BME280;37364;46.974;18.916;2023-02-21T06:14:36;151353.91;;;3.99;100.00
51287;BME280;37364;46.974;18.916;2023-02-21T06:17:06;151371.94;;;4.06;100.00
51287;BME280;37364;46.974;18.916;2023-02-21T06:19:37;151392.56;;;4.14;100.00
51287;BME280;37364;46.974;18.916;2023-02-21T06:22:07;151375.78;;;4.07;100.00
51287;BME280;37364;46.974;18.916;2023-02-21T06:24:38;151402.88;;;4.18;100.00
51287;BME280;37364;46.974;18.916;2023-02-21T06:27:11;151415.72;;;4.23;100.00
51287;BME280;37364;46.974;18.916;2023-02-21T06:29:41;151442.81;;;4.34;100.00
51287;BME280;37364;46.974;18.916;2023-02-21T06:32:12;151502.09;;;4.58;100.00
51287;BME280;37364;46.974;18.916;2023-02-21T06:34:45;151520.16;;;4.65;100.00
51287;BME280;37364;46.974;18.916;2023-02-21T06:37:17;151566.53;;;4.83;100.00
51287;BME280;37364;46.974;18.916;2023-02-21T06:39:47;151565.28;;;4.83;100.00
51287;BME280;37364;46.974;18.916;2023-02-21T06:42:21;151578.13;;;4.88;100.00
51287;BME280;37364;46.974;18.916;2023-02-21T06:44:51;151585.88;;;4.91;100.00
51287;BME280;37364;46.974;18.916;2023-02-21T06:47:22;151600.06;;;4.97;100.00
51287;BME280;37364;46.974;18.916;2023-02-21T06:49:52;151624.56;;;5.06;100.00
51287;BME280;37364;46.974;18.916;2023-02-21T06:52:23;151645.19;;;5.14;100.00
51287;BME280;37364;46.974;18.916;2023-02-21T06:54:53;151680.03;;;5.28;100.00
51287;BME280;37364;46.974;18.916;2023-02-21T06:57:26;151741.94;;;5.53;100.00
51287;BME280;37364;46.974;18.916;2023-02-21T06:59:57;151778.06;;;5.67;100.00
51287;BME280;37364;46.974;18.916;2023-02-21T07:02:27;151766.47;;;5.63;100.00
51287;BME280;37364;46.974;18.916;2023-02-21T07:05:01;151807.72;;;5.79;100.00
51287;BME280;37364;46.974;18.916;2023-02-21T07:07:32;151889.03;;;6.11;100.00
51287;BME280;37364;46.974;18.916;2023-02-21T07:10:03;151920.06;;;6.24;100.00
51287;BME280;37364;46.974;18.916;2023-02-21T07:12:37;151965.22;;;6.42;100.00
51287;BME280;37364;46.974;18.916;2023-02-21T07:15:08;151963.94;;;6.41;100.00
51287;BME280;37364;46.974;18.916;2023-02-21T07:17:38;151997.47;;;6.54;100.00
51287;BME280;37364;46.974;18.916;2023-02-21T07:20:09;152045.25;;;6.73;100.00
51287;BME280;37364;46.974;18.916;2023-02-21T07:22:40;152047.84;;;6.75;100.00
51287;BME280;37364;46.974;18.916;2023-02-21T07:25:13;152045.25;;;6.73;100.00
51287;BME280;37364;46.974;18.916;2023-02-21T07:27:48;152099.47;;;6.95;100.00
51287;BME280;37364;46.974;18.916;2023-02-21T07:30:19;152138.22;;;7.10;100.00
51287;BME280;37364;46.974;18.916;2023-02-21T07:32:50;152176.97;;;7.26;100.00
51287;BME280;37364;46.974;18.916;2023-02-21T07:35:19;152204.06;;;7.37;100.00
51287;BME280;37364;46.974;18.916;2023-02-21T07:37:50;152226.06;;;7.45;100.00
51287;BME280;37364;46.974;18.916;2023-02-21T07:40:21;152246.72;;;7.53;100.00
51287;BME280;37364;46.974;18.916;2023-02-21T07:42:54;152280.31;;;7.67;100.00
51287;BME280;37364;46.974;18.916;2023-02-21T07:45:25;152294.53;;;7.72;100.00
51287;BME280;37364;46.974;18.916;2023-02-21T07:47:56;152332.00;;;7.87;100.00
51287;BME280;37364;46.974;18.916;2023-02-21T07:50:27;152347.50;;;7.93;100.00
51287;BME280;37364;46.974;18.916;2023-02-21T07:52:57;152404.38;;;8.16;100.00
51287;BME280;37364;46.974;18.916;2023-02-21T07:55:28;152448.31;;;8.34;100.00
51287;BME280;37364;46.974;18.916;2023-02-21T07:58:02;152454.78;;;8.36;100.00
51287;BME280;37364;46.974;18.916;2023-02-21T08:00:33;152459.94;;;8.38;100.00
51287;BME280;37364;46.974;18.916;2023-02-21T08:03:07;152474.22;;;8.44;100.00
51287;BME280;37364;46.974;18.916;2023-02-21T08:05:39;152525.91;;;8.64;100.00
51287;BME280;37364;46.974;18.916;2023-02-21T08:08:14;152566.03;;;8.80;100.00
51287;BME280;37364;46.974;18.916;2023-02-21T08:10:45;152628.06;;;9.05;100.00
51287;BME280;37364;46.974;18.916;2023-02-21T08:13:18;152648.75;;;9.13;100.00
51287;BME280;37364;46.974;18.916;2023-02-21T08:15:49;152722.50;;;9.42;100.00
51287;BME280;37364;46.974;18.916;2023-02-21T08:18:21;152749.69;;;9.53;100.00
51287;BME280;37364;46.974;18.916;2023-02-21T08:20:53;152750.97;;;9.54;100.00
51287;BME280;37364;46.974;18.916;2023-02-21T08:23:24;152789.78;;;9.69;100.00
51287;BME280;37364;46.974;18.916;2023-02-21T08:25:55;152823.44;;;9.82;100.00
51287;BME280;37364;46.974;18.916;2023-02-21T08:28:28;152853.22;;;9.94;100.00
51287;BME280;37364;46.974;18.916;2023-02-21T08:31:01;152867.44;;;10.00;100.00
51287;BME280;37364;46.974;18.916;2023-02-21T08:33:32;152890.72;;;10.09;100.00
51287;BME280;37364;46.974;18.916;2023-02-21T08:36:03;152956.81;;;10.35;100.00
51287;BME280;37364;46.974;18.916;2023-02-21T08:38:34;152927.00;;;10.23;100.00
51287;BME280;37364;46.974;18.916;2023-02-21T08:41:05;153031.88;;;10.65;100.00
51287;BME280;37364;46.974;18.916;2023-02-21T08:43:39;153055.22;;;10.74;100.00
51287;BME280;37364;46.974;18.916;2023-02-21T08:46:10;153069.41;;;10.80;100.00
51287;BME280;37364;46.974;18.916;2023-02-21T08:48:40;153126.41;;;11.02;100.00
51287;BME280;37364;46.974;18.916;2023-02-21T08:51:11;153095.34;;;10.90;100.00
51287;BME280;37364;46.974;18.916;2023-02-21T08:53:42;153135.50;;;11.06;100.00
51287;BME280;37364;46.974;18.916;2023-02-21T08:56:17;153186.00;;;11.26;100.00
51287;BME280;37364;46.974;18.916;2023-02-21T08:58:51;153208.00;;;11.35;100.00
51287;BME280;37364;46.974;18.916;2023-02-21T09:01:23;153244.31;;;11.49;100.00
51287;BME280;37364;46.974;18.916;2023-02-21T09:03:54;153281.84;;;11.64;100.00
51287;BME280;37364;46.974;18.916;2023-02-21T09:06:25;153275.38;;;11.61;100.00
51287;BME280;37364;46.974;18.916;2023-02-21T09:08:55;153333.69;;;11.84;100.00
51287;BME280;37364;46.974;18.916;2023-02-21T09:11:26;153288.34;;;11.66;100.00
51287;BME280;37364;46.974;18.916;2023-02-21T09:13:59;153372.63;;;12.00;100.00
51287;BME280;37364;46.974;18.916;2023-02-21T09:16:32;153443.91;;;12.28;100.00
51287;BME280;37364;46.974;18.916;2023-02-21T09:19:02;153438.72;;;12.26;96.58
51287;BME280;37364;46.974;18.916;2023-02-21T09:21:34;153462.06;;;12.35;97.85
51287;BME280;37364;46.974;18.916;2023-02-21T09:24:11;153421.88;;;12.19;97.01
51287;BME280;37364;46.974;18.916;2023-02-21T09:26:42;153458.16;;;12.34;95.46
51287;BME280;37364;46.974;18.916;2023-02-21T09:29:16;153495.78;;;12.49;95.40
51287;BME280;37364;46.974;18.916;2023-02-21T09:31:46;153530.78;;;12.62;94.32
51287;BME280;37364;46.974;18.916;2023-02-21T09:34:17;153502.25;;;12.51;95.07
51287;BME280;37364;46.974;18.916;2023-02-21T09:36:48;153495.78;;;12.49;95.14
51287;BME280;37364;46.974;18.916;2023-02-21T09:39:23;153552.81;;;12.71;96.00
51287;BME280;37364;46.974;18.916;2023-02-21T09:41:54;153550.25;;;12.70;92.80
51287;BME280;37364;46.974;18.916;2023-02-21T09:44:28;153577.44;;;12.81;92.78
51287;BME280;37364;46.974;18.916;2023-02-21T09:46:59;153580.06;;;12.82;91.60
51287;BME280;37364;46.974;18.916;2023-02-21T09:49:34;153580.06;;;12.82;92.02
51287;BME280;37364;46.974;18.916;2023-02-21T09:52:14;153561.91;;;12.75;90.91
51287;BME280;37364;46.974;18.916;2023-02-21T09:54:56;153591.72;;;12.86;96.23
51287;BME280;37364;46.974;18.916;2023-02-21T09:57:40;153603.38;;;12.91;95.26
51287;BME280;37364;46.974;18.916;2023-02-21T10:00:35;153709.81;;;13.33;94.91
51287;BME280;37364;46.974;18.916;2023-02-21T10:03:37;153734.44;;;13.43;96.37
51287;BME280;37364;46.974;18.916;2023-02-21T10:06:21;153750.00;;;13.49;94.36
51287;BME280;37364;46.974;18.916;2023-02-21T10:08:59;153759.09;;;13.53;91.22
51287;BME280;37364;46.974;18.916;2023-02-21T10:11:53;153820.06;;;13.77;90.09
51287;BME280;37364;46.974;18.916;2023-02-21T10:14:36;153800.59;;;13.69;82.56
51287;BME280;37364;46.974;18.916;2023-02-21T10:17:21;153800.59;;;13.69;81.50
51287;BME280;37364;46.974;18.916;2023-02-21T10:20:04;153786.31;;;13.63;80.17
51287;BME280;37364;46.974;18.916;2023-02-21T10:22:42;153787.59;;;13.64;87.90
51287;BME280;37364;46.974;18.916;2023-02-21T10:25:22;153814.88;;;13.75;83.06
51287;BME280;37364;46.974;18.916;2023-02-21T10:28:01;153827.88;;;13.80;84.19
51287;BME280;37364;46.974;18.916;2023-02-21T10:30:34;153823.97;;;13.78;80.85
51287;BME280;37364;46.974;18.916;2023-02-21T10:33:16;153838.25;;;13.84;82.38
51287;BME280;37364;46.974;18.916;2023-02-21T10:35:50;153894.03;;;14.06;82.79
51287;BME280;37364;46.974;18.916;2023-02-21T10:38:25;153964.13;;;14.34;81.67
51287;BME280;37364;46.974;18.916;2023-02-21T10:40:56;153931.66;;;14.21;80.32
51287;BME280;37364;46.974;18.916;2023-02-21T10:43:30;153992.69;;;14.45;79.80
51287;BME280;37364;46.974;18.916;2023-02-21T10:46:08;154003.06;;;14.49;80.44
51287;BME280;37364;46.974;18.916;2023-02-21T10:48:46;153969.31;;;14.36;79.44
51287;BME280;37364;46.974;18.916;2023-02-21T10:51:30;153996.59;;;14.47;79.29
51287;BME280;37364;46.974;18.916;2023-02-21T10:56:51;154044.66;;;14.66;79.44
51287;BME280;37364;46.974;18.916;2023-02-21T10:59:24;154132.97;;;15.00;80.97
51287;BME280;37364;46.974;18.916;2023-02-21T11:01:57;154096.63;;;14.86;78.62
51287;BME280;37364;46.974;18.916;2023-02-21T11:04:33;154058.94;;;14.71;78.28
51287;BME280;37364;46.974;18.916;2023-02-21T11:07:09;154005.66;;;14.50;79.74
51287;BME280;37364;46.974;18.916;2023-02-21T11:09:43;154036.91;;;14.62;78.00
51287;BME280;37364;46.974;18.916;2023-02-21T11:12:22;154016.03;;;14.54;76.72
51287;BME280;37364;46.974;18.916;2023-02-21T11:15:15;154052.47;;;14.69;77.09
51287;BME280;37364;46.974;18.916;2023-02-21T11:18:03;154090.09;;;14.83;77.20
51287;BME280;37364;46.974;18.916;2023-02-21T11:20:36;154083.63;;;14.81;76.26
51287;BME280;37364;46.974;18.916;2023-02-21T11:23:18;154121.28;;;14.96;78.67
51287;BME280;37364;46.974;18.916;2023-02-21T11:25:55;154021.31;;;14.56;78.12
51287;BME280;37364;46.974;18.916;2023-02-21T11:28:27;154071.94;;;14.76;76.74
51287;BME280;37364;46.974;18.916;2023-02-21T11:31:14;154033.00;;;14.61;78.26
51287;BME280;37364;46.974;18.916;2023-02-21T11:33:51;154062.84;;;14.73;78.66
51287;BME280;37364;46.974;18.916;2023-02-21T11:36:30;154086.22;;;14.82;78.13
51287;BME280;37364;46.974;18.916;2023-02-21T11:39:04;154052.47;;;14.69;77.03
51287;BME280;37364;46.974;18.916;2023-02-21T11:41:45;154056.38;;;14.70;77.52
51287;BME280;37364;46.974;18.916;2023-02-21T11:44:28;154042.09;;;14.65;78.68
51287;BME280;37364;46.974;18.916;2023-02-21T11:47:06;154034.28;;;14.61;78.44
51287;BME280;37364;46.974;18.916;2023-02-21T11:49:50;154039.47;;;14.63;78.86
51287;BME280;37364;46.974;18.916;2023-02-21T11:52:30;154116.09;;;14.94;78.66
51287;BME280;37364;46.974;18.916;2023-02-21T11:55:15;154169.31;;;15.15;76.66
51287;BME280;37364;46.974;18.916;2023-02-21T11:57:58;154140.78;;;15.03;77.85
51287;BME280;37364;46.974;18.916;2023-02-21T12:00:42;154104.38;;;14.89;78.87
51287;BME280;37364;46.974;18.916;2023-02-21T12:04:00;154081.03;;;14.80;78.12
51287;BME280;37364;46.974;18.916;2023-02-21T12:06:41;154084.91;;;14.81;75.99
51287;BME280;37364;46.974;18.916;2023-02-21T12:09:25;154116.09;;;14.94;78.35
51287;BME280;37364;46.974;18.916;2023-02-21T12:12:09;154068.03;;;14.75;77.40
51287;BME280;37364;46.974;18.916;2023-02-21T12:15:04;154140.78;;;15.03;77.06
51287;BME280;37364;46.974;18.916;2023-02-21T12:18:06;154108.28;;;14.91;77.86
51287;BME280;37364;46.974;18.916;2023-02-21T12:21:13;154092.72;;;14.85;77.37
51287;BME280;37364;46.974;18.916;2023-02-21T12:23:55;154087.53;;;14.82;76.99
51287;BME280;37364;46.974;18.916;2023-02-21T12:26:49;154087.53;;;14.82;78.79
51287;BME280;37364;46.974;18.916;2023-02-21T12:29:35;154129.06;;;14.99;77.54
51287;BME280;37364;46.974;18.916;2023-02-21T12:32:34;154096.63;;;14.86;78.04
51287;BME280;37364;46.974;18.916;2023-02-21T12:35:42;154123.88;;;14.97;79.25
51287;BME280;37364;46.974;18.916;2023-02-21T12:38:25;154100.47;;;14.88;78.26
51287;BME280;37364;46.974;18.916;2023-02-21T12:41:22;154088.81;;;14.83;78.07
51287;BME280;37364;46.974;18.916;2023-02-21T12:44:10;154129.06;;;14.99;79.29
51287;BME280;37364;46.974;18.916;2023-02-21T12:46:51;154171.94;;;15.16;80.36
51287;BME280;37364;46.974;18.916;2023-02-21T12:49:29;154130.38;;;14.99;77.71
51287;BME280;37364;46.974;18.916;2023-02-21T12:52:13;154192.69;;;15.24;76.86
51287;BME280;37364;46.974;18.916;2023-02-21T12:54:51;154201.81;;;15.28;77.09
51287;BME280;37364;46.974;18.916;2023-02-21T12:57:29;154217.38;;;15.34;77.97
51287;BME280;37364;46.974;18.916;2023-02-21T13:00:15;154232.97;;;15.40;77.03
51287;BME280;37364;46.974;18.916;2023-02-21T13:02:57;154165.44;;;15.13;74.81
51287;BME280;37364;46.974;18.916;2023-02-21T13:05:36;154169.31;;;15.15;74.67
51287;BME280;37364;46.974;18.916;2023-02-21T13:08:14;154157.63;;;15.10;75.60
51287;BME280;37364;46.974;18.916;2023-02-21T13:10:55;154118.66;;;14.95;76.00
51287;BME280;37364;46.974;18.916;2023-02-21T13:13:31;154112.19;;;14.92;77.71
51287;BME280;37364;46.974;18.916;2023-02-21T13:16:07;154109.56;;;14.91;78.62
51287;BME280;37364;46.974;18.916;2023-02-21T13:18:44;154119.97;;;14.95;77.63
51287;BME280;37364;46.974;18.916;2023-02-21T13:21:24;154087.53;;;14.82;78.73
51287;BME280;37364;46.974;18.916;2023-02-21T13:27:16;154125.16;;;14.97;78.67
51287;BME280;37364;46.974;18.916;2023-02-21T13:29:50;154122.59;;;14.96;79.17
51287;BME280;37364;46.974;18.916;2023-02-21T13:32:25;154083.63;;;14.81;78.38
51287;BME280;37364;46.974;18.916;2023-02-21T13:34:59;154112.19;;;14.92;79.50
51287;BME280;37364;46.974;18.916;2023-02-21T13:37:34;154129.06;;;14.99;78.96
51287;BME280;37364;46.974;18.916;2023-02-21T13:40:20;154127.78;;;14.98;79.36
51287;BME280;37364;46.974;18.916;2023-02-21T13:43:05;154104.38;;;14.89;77.97
51287;BME280;37364;46.974;18.916;2023-02-21T13:45:38;154049.84;;;14.68;78.33
51287;BME280;37364;46.974;18.916;2023-02-21T13:48:29;154095.28;;;14.86;79.47
51287;BME280;37364;46.974;18.916;2023-02-21T13:51:00;154123.88;;;14.97;79.98
51287;BME280;37364;46.974;18.916;2023-02-21T13:53:32;154068.03;;;14.75;80.07